Thursday, November 23, 2017, 4:33 AM EST
Back to Local

KUNV, State College, University Park Airport

Location: State College, PA, United States Lat: 40.85
Local Time: 4:33 AM EST ( 9:33 GMT) Lon: -77.85
Time Zone: US/Eastern Elev: 1240 ft

Show me the last for .
Show Coded

Time T Td Feel RH Dir Speed Gust Alt SLP Vis Weather Sky Remarks
2017-11-23 04:15 31 19 22 62 330° 10 - 30.12 - 10 OVC031 None
2017-11-23 03:55 31 19 26 62 330° 5 - 30.12 - 10 OVC031 None
2017-11-23 03:35 31 19 27 61 320° 3 - 30.13 - 10 OVC033 None
2017-11-23 03:15 31 19 24 60 320° 7 - 30.13 - 10 OVC033 None
2017-11-23 02:55 31 19 25 59 310° 6 - 30.13 - 10 OVC033 None
2017-11-23 02:35 31 18 23 59 300° 8 - 30.13 - 10 OVC033 None
2017-11-23 02:15 31 18 25 58 330° 6 - 30.14 - 10 OVC035 None
2017-11-23 01:55 31 18 23 58 290° 8 - 30.13 - 10 OVC035 None
2017-11-23 01:35 31 18 24 57 310° 8 - 30.13 - 10 OVC033 None
2017-11-23 01:15 31 19 24 59 310° 8 - 30.13 - 10 OVC033 None
2017-11-23 00:55 31 19 26 60 320° 5 - 30.13 - 10 OVC033 6-hr Min Temp (1am): 30.2°F
6-hr Max Temp (1am): 32.4°F
2017-11-23 00:35 31 19 25 59 310° 6 - 30.15 - 10 OVC035 None
2017-11-23 00:15 31 19 26 59 290° 5 - 30.15 - 10 OVC035 None
2017-11-22 23:55 31 18 26 58 300° 5 - 30.16 - 10 OVC037 None
2017-11-22 23:35 31 18 24 56 310° 7 - 30.15 - 10 OVC037 None
2017-11-22 23:15 31 18 - 57 - Calm - 30.15 - 10 OVC037 None
2017-11-22 22:55 30 17 25 57 320° 6 - 30.15 - 10 BKN037 24-hr Min Temp (11pm): 30.2°F
24-hr Max Temp (11pm): 46.8°F
2017-11-22 22:35 30 17 27 58 320° 3 - 30.15 - 10 SCT037 None
2017-11-22 22:15 31 18 25 59 320° 6 - 30.15 - 10 BKN035 None
2017-11-22 21:53 32 19 25 59 270° 8 - 30.15 - 10 OVC035 None
2017-11-22 20:53 32 19 25 59 300° 8 - 30.16 - 10 OVC033 None
2017-11-22 19:53 32 19 21 59 270° 17 - 30.17 - 10 OVC031 None
2017-11-22 18:53 32 21 20 63 240° 18 - 30.16 - 10 OVC031 None
2017-11-22 17:53 34 23 24 64 270° 15 - 30.15 - 10 OVC031 None
2017-11-22 16:53 34 21 26 59 270° 9 - 30.13 - 10 OVC035 None
2017-11-22 15:53 36 23 27 59 280° 14 - 30.10 - 10 BKN035 None
2017-11-22 14:53 36 23 24 59 270° 10 23 30.08 - 10 BKN037 None
2017-11-22 13:53 37 23 25 55 320° 16 29 30.09 - 10 OVC035 None
2017-11-22 12:53 39 27 29 60 330° 14 23 30.07 - 10 BKN035 OVC041 None
2017-11-22 12:41 39 27 29 60 320° 9 21 30.05 - 10 SCT031 BKN038 OVC046 None
2017-11-22 11:53 39 28 30 64 310° 9 17 30.05 - 10 BKN029 BKN043 OVC050 None
2017-11-22 10:53 39 30 32 69 320° 12 - 30.06 - 8 VCSH BKN027 OVC045 None
2017-11-22 09:53 39 32 32 75 320° 12 - 30.05 - 10 BKN024 OVC055 None
2017-11-22 08:53 39 30 33 69 290° 9 - 30.03 - 10 OVC024 None
2017-11-22 07:53 39 32 29 75 310° 10 23 30.01 - 10 SCT020 SCT046 OVC050 None
2017-11-22 06:53 43 34 34 70 300° 12 23 29.97 - 10 SCT028 SCT040 OVC110 None
2017-11-22 05:53 46 32 40 56 280° 14 - 29.92 - 10 BKN055 BKN070 OVC110 None
2017-11-22 05:35 46 32 42 56 270° 8 - 29.91 - 10 SCT065 OVC110 None
2017-11-22 05:15 46 32 42 56 260° 9 - 29.91 - 10 SCT065 SCT095 OVC120 None
2017-11-22 04:55 44 31 40 61 260° 7 - 29.91 - 10 BKN080 OVC100 None

Support USWX by starting your Amazon purchase here.